WetterOnline ( https://www.wetteronline.de )

Wetter aktuell Kassel

Aktuelles Wetter: Schauenburg-Elgershausen (317m)

6-stündlich | Neueste Meldungen
Ortszeit Temperatur Wetter
Mi, 29.05. 14:00 15.5° C leichter Regen
Mi, 29.05. 8:00 13.0° C bedeckt
Mi, 29.05. 2:00 14.4° C bewölkt
Di, 28.05. 20:00 15.9° C wolkig
Di, 28.05. 14:00 14.8° C wolkig
Di, 28.05. 8:00 11.4° C bedeckt
Di, 28.05. 2:00 12.1° C wolkig
Mo, 27.05. 20:00 17.0° C bedeckt
Ortszeit Temperatur Wetter
Mi, 29.05. 16:30 16.7° C bewölkt
Mi, 29.05. 16:20 16.7° C bewölkt
Mi, 29.05. 16:10 17.0° C bewölkt
Mi, 29.05. 16:00 16.6° C bewölkt
Mi, 29.05. 15:50 16.6° C bewölkt
Mi, 29.05. 15:40 16.4° C bedeckt
Mi, 29.05. 15:30 14.9° C bedeckt
Mi, 29.05. 15:00 15.0° C leichter Regen
Mi, 29.05. 14:30 16.0° C leichter Regen
Mi, 29.05. 14:00 15.5° C leichter Regen
Mi, 29.05. 13:30 15.8° C bedeckt
Ortszeit Relative Feuchte Sichtweite
Mi, 29.05. 14:00 80% 45 km
Mi, 29.05. 8:00 89% 45 km
Mi, 29.05. 2:00 66% 60 km
Di, 28.05. 20:00 54% >70 km
Di, 28.05. 14:00 51% 65 km
Di, 28.05. 8:00 84% 30 km
Di, 28.05. 2:00 92% 27 km
Mo, 27.05. 20:00 70% 55 km
Ortszeit Relative Feuchte Sichtweite
Mi, 29.05. 16:30 73% >70 km
Mi, 29.05. 16:20 73% -
Mi, 29.05. 16:10 80% -
Mi, 29.05. 16:00 77% 55 km
Mi, 29.05. 15:50 77% -
Mi, 29.05. 15:40 82% -
Mi, 29.05. 15:30 84% 50 km
Mi, 29.05. 15:00 84% 29 km
Mi, 29.05. 14:30 80% 14 km
Mi, 29.05. 14:00 80% 45 km
Mi, 29.05. 13:30 82% 55 km
Ortszeit Niederschlagsmenge Niederschlagsart
Mi, 29.05. 14:00 0.6 l/m2 in 6 Std. Regen
Mi, 29.05. 8:00 0.1 l/m2 in 12 Std. Regen
Mi, 29.05. 2:00 0.1 l/m2 in 6 Std. Regen
Di, 28.05. 20:00 0.3 l/m2 in 12 Std. -
Di, 28.05. 14:00 0.3 l/m2 in 6 Std. Regen
Di, 28.05. 8:00 0.9 l/m2 in 12 Std. Regen
Di, 28.05. 2:00 0.9 l/m2 in 6 Std. Regen
Mo, 27.05. 20:00 0.0 l/m2 in 12 Std. -
Ortszeit Niederschlagsmenge Niederschlagsart
Mi, 29.05. 16:30 0.0 l/m2 in 30 Min -
Mi, 29.05. 16:20 keine Meldung -
Mi, 29.05. 16:10 keine Meldung -
Mi, 29.05. 16:00 <0.05 l/m2 in 1 Std. Regen
Mi, 29.05. 15:50 keine Meldung -
Mi, 29.05. 15:40 keine Meldung -
Mi, 29.05. 15:30 <0.05 l/m2 in 30 Min Schneeregen
Mi, 29.05. 15:00 1.5 l/m2 in 1 Std. Regen
Mi, 29.05. 14:30 <0.05 l/m2 in 30 Min -
Mi, 29.05. 14:00 <0.05 l/m2 in 1 Std. Regen
Mi, 29.05. 13:30 <0.05 l/m2 in 30 Min Schnee
Ortszeit Stärke Spitze Richtung
km/h Bft. km/h Grad Sektor
Mi, 29.05. 14:00 13 3 31 180° S
Mi, 29.05. 8:00 11 2 25 180° S
Mi, 29.05. 2:00 6 1 20 170° S
Di, 28.05. 20:00 9 2 28 220° SW
Di, 28.05. 14:00 15 3 28 260° W
Di, 28.05. 8:00 11 2 29 290° W
Di, 28.05. 2:00 7 2 25 320° NW
Mo, 27.05. 20:00 11 2 22 260° W
Ortszeit Stärke Spitze Richtung
km/h Bft. km/h Grad Sektor
Mi, 29.05. 16:30 18 3 32 200° S
Mi, 29.05. 16:20 18 3 - 200° S
Mi, 29.05. 16:10 13 3 - 180° S
Mi, 29.05. 16:00 14 3 29 190° S
Mi, 29.05. 15:50 14 3 - 190° S
Mi, 29.05. 15:40 7 2 - 260° W
Mi, 29.05. 15:30 11 2 25 280° W
Mi, 29.05. 15:00 11 2 25 200° S
Mi, 29.05. 14:30 11 2 22 190° S
Mi, 29.05. 14:00 13 3 28 180° S
Mi, 29.05. 13:30 13 3 24 200° S
Ortszeit Untergrenze Bedeckung Gattung
total tief tief mittel hoch
Mi, 29.05. 14:00 480 m 8/8 8/8 - - -
Mi, 29.05. 8:00 300 m 8/8 8/8 - - -
Mi, 29.05. 2:00 960 m 7/8 7/8 - - -
Di, 28.05. 20:00 4800 m 7/8 7/8 - - -
Di, 28.05. 14:00 1470 m 6/8 6/8 - - -
Di, 28.05. 8:00 1800 m 8/8 8/8 - - -
Di, 28.05. 2:00 2700 m 8/8 1/8 - - -
Mo, 27.05. 20:00 1500 m 8/8 8/8 - - -
Ortszeit Bedeckungsgrad in Achtel und Wolkenuntergrenze
Mi, 29.05. 16:30 3(510m) 4(1080m) 7(2100m)
Mi, 29.05. 16:20 3(510m) 4(1080m) 7(2100m)
Mi, 29.05. 16:10 7
Mi, 29.05. 16:00 4(600m) 7(2100m) 7(2400m)
Mi, 29.05. 15:50 4(600m) 7(2100m) 7(2400m)
Mi, 29.05. 15:40 8
Mi, 29.05. 15:30 4(480m) 6(750m) 8(2400m)
Mi, 29.05. 15:00 3(600m) 6(780m) 7(2100m)
Mi, 29.05. 14:30 1(450m) 4(1800m) 8(2100m)
Mi, 29.05. 14:00 7(480m) 7(690m) 8(2400m)
Mi, 29.05. 13:30 5(510m) 8(1020m) 8(1320m)
Ortszeit Luftdruck NN (hPa) Tendenz (hPa in 3 Std.)
Mi, 29.05. 14:00 1011 - 1,2
Mi, 29.05. 8:00 1013 - 0,8
Mi, 29.05. 2:00 1016 - 1,3
Di, 28.05. 20:00 1017 - 0,6
Di, 28.05. 14:00 1019 - 0,4
Di, 28.05. 8:00 1018 + 1,2
Di, 28.05. 2:00 1017 + 0,1
Mo, 27.05. 20:00 1015 - 0,2
Ortszeit Luftdruck NN (hPa) Tendenz (hPa in 3 Std.)
Mi, 29.05. 16:30 1010 - 1,5
Mi, 29.05. 16:20 1010 keine Meldung
Mi, 29.05. 16:10 1010 keine Meldung
Mi, 29.05. 16:00 1010 - 1,3
Mi, 29.05. 15:50 1010 keine Meldung
Mi, 29.05. 15:40 1010 keine Meldung
Mi, 29.05. 15:30 1011 - 1,2
Mi, 29.05. 15:00 1011 - 1,1
Mi, 29.05. 14:30 1011 - 1,1
Mi, 29.05. 14:00 1011 - 1,2
Mi, 29.05. 13:30 1011 - 0,9
Ortszeit Schneehöhe (cm)
Mi, 29.05. 14:00 0
Mi, 29.05. 8:00 0
Mi, 29.05. 2:00 0
Di, 28.05. 20:00 0
Di, 28.05. 14:00 0
Di, 28.05. 8:00 0
Di, 28.05. 2:00 0
Mo, 27.05. 20:00 0
Ortszeit Schneehöhe (cm)
Mi, 29.05. 16:30 0
Mi, 29.05. 16:20 0
Mi, 29.05. 16:10 -
Mi, 29.05. 16:00 0
Mi, 29.05. 15:50 0
Mi, 29.05. 15:40 -
Mi, 29.05. 15:30 0
Mi, 29.05. 15:00 0
Mi, 29.05. 14:30 0
Mi, 29.05. 14:00 0
Mi, 29.05. 13:30 -
Link zu dieser Seite / Seite empfehlen

Das Wetter in ...